Terminal Aerodrome Forecast
Issued by NWS

Home | Current Version | Previous Version | Graphics & Text | Print | Product List | Glossary On
Versions: 1 2 3 4 5 6 7 8 9 10 11 12 13 14 15 16 17 18 19 20 21 22 23
000
FTUS43 KTOP 291100
TAFMHK
TAF
KMHK 291122Z 2912/3012 20005KT P6SM VCTS SCT035CB BKN120
     FM291400 23006KT P6SM SCT035 BKN100
     FM292100 23007KT P6SM VCTS BKN030CB
     FM300200 35012KT P6SM OVC015=

USA.gov is the U.S. government's official web portal to all federal, state and local government web resources and services.